Time;durP1;ratioP1;P1;durP2;ratioP2;P2;SDS_P1;SDS_P2;PMS_P1;PMS_P2;Temp;Humidity;BMP_temperature;BMP_pressure;BME280_temperature;BME280_humidity;BME280_pressure;Samples;Min_cycle;Max_cycle;Signal;HPM_P1;HPM_P2
2023/03/26 00:02:12;;;;;;;11.50;6.23;;;7.60;99.90;;;;;;4977602;28;20211;-80
2023/03/26 00:04:41;;;;;;;11.37;5.97;;;7.60;99.90;;;;;;4978089;28;20240;-79
2023/03/26 00:07:11;;;;;;;9.63;5.80;;;7.60;99.90;;;;;;4977631;28;20205;-77
2023/03/26 00:09:38;;;;;;;11.73;6.10;;;7.50;99.90;;;;;;4977969;28;20561;-80
2023/03/26 00:12:05;;;;;;;9.80;6.30;;;7.50;99.90;;;;;;4977751;28;20227;-79
2023/03/26 00:14:34;;;;;;;11.30;5.93;;;7.50;99.90;;;;;;4977869;28;20210;-80
2023/03/26 00:17:01;;;;;;;12.33;6.27;;;7.40;99.90;;;;;;4977510;28;20266;-79
2023/03/26 00:19:29;;;;;;;9.20;6.30;;;7.40;99.90;;;;;;4995023;28;20206;-79
2023/03/26 00:21:56;;;;;;;12.10;6.97;;;7.30;99.90;;;;;;4995195;28;20192;-79
2023/03/26 00:24:28;;;;;;;10.37;7.03;;;7.30;99.90;;;;;;4977038;28;20212;-79
2023/03/26 00:26:55;;;;;;;11.37;7.07;;;7.20;99.90;;;;;;4994556;28;20209;-80
2023/03/26 00:29:23;;;;;;;11.00;6.47;;;7.20;99.90;;;;;;4977512;28;20216;-80
2023/03/26 00:31:50;;;;;;;12.10;7.03;;;7.20;99.90;;;;;;4995040;28;20705;-78
2023/03/26 00:34:17;;;;;;;13.37;7.23;;;7.20;99.90;;;;;;4994827;28;20283;-79
2023/03/26 00:36:45;;;;;;;9.57;6.20;;;7.20;99.90;;;;;;4994627;28;20298;-80
2023/03/26 00:39:14;;;;;;;11.63;6.80;;;7.10;99.90;;;;;;4994938;28;20552;-80
2023/03/26 00:41:41;;;;;;;10.87;6.70;;;7.10;99.90;;;;;;4977472;28;20208;-79
2023/03/26 00:44:10;;;;;;;10.00;5.70;;;7.10;99.90;;;;;;4980107;28;20206;-80
2023/03/26 00:46:37;;;;;;;9.93;6.00;;;7.20;99.90;;;;;;4977100;28;20216;-80
2023/03/26 00:49:04;;;;;;;12.17;5.80;;;7.10;99.90;;;;;;4977571;28;20212;-80
2023/03/26 00:51:32;;;;;;;11.63;6.40;;;7.10;99.90;;;;;;4977381;28;20195;-80
2023/03/26 00:54:00;;;;;;;10.77;5.43;;;7.10;99.90;;;;;;4977070;28;20205;-80
2023/03/26 00:56:27;;;;;;;10.97;6.17;;;7.00;99.90;;;;;;4976615;28;20219;-80
2023/03/26 00:58:54;;;;;;;10.83;5.80;;;7.00;99.90;;;;;;4976706;28;20227;-80
2023/03/26 01:01:26;;;;;;;10.07;5.70;;;7.00;99.90;;;;;;4977145;28;20649;-80
2023/03/26 01:03:58;;;;;;;8.77;5.30;;;7.10;99.90;;;;;;4976855;28;20207;-80
2023/03/26 01:06:40;;;;;;;10.50;5.73;;;7.00;99.90;;;;;;4976994;28;20231;-80
2023/03/26 01:09:17;;;;;;;12.43;5.80;;;7.00;99.90;;;;;;4994360;28;20214;-80
2023/03/26 01:11:44;;;;;;;13.00;5.40;;;7.00;99.90;;;;;;4976771;28;20226;-79
2023/03/26 01:14:15;;;;;;;8.97;5.27;;;7.00;99.90;;;;;;4960823;28;20207;-79
2023/03/26 01:16:53;;;;;;;9.13;4.93;;;7.10;99.90;;;;;;4993952;28;20649;-79
2023/03/26 01:19:45;;;;;;;9.10;4.97;;;7.10;99.90;;;;;;4976781;28;20197;-79
2023/03/26 01:22:19;;;;;;;9.77;5.20;;;7.10;99.90;;;;;;4994135;28;20581;-78
2023/03/26 01:24:51;;;;;;;8.67;4.73;;;7.10;99.90;;;;;;4993918;28;20204;-79
2023/03/26 01:27:33;;;;;;;10.33;5.27;;;7.10;99.90;;;;;;4976194;28;20322;-80
2023/03/26 01:30:04;;;;;;;11.40;4.90;;;7.20;99.90;;;;;;4994162;28;20218;-81
2023/03/26 01:32:50;;;;;;;6.80;4.47;;;7.10;99.90;;;;;;4976380;28;20210;-80
2023/03/26 01:35:49;;;;;;;8.53;4.60;;;7.20;99.90;;;;;;4975452;28;20200;-80
2023/03/26 01:38:45;;;;;;;8.77;4.60;;;7.10;99.90;;;;;;4914416;29;20313;-80
2023/03/26 01:41:31;;;;;;;9.37;4.47;;;7.10;99.90;;;;;;4899068;29;20255;-82
2023/03/26 01:44:15;;;;;;;8.13;4.70;;;7.20;99.90;;;;;;4915129;29;20218;-80
2023/03/26 01:46:44;;;;;;;7.23;4.43;;;7.10;99.90;;;;;;4898555;29;20194;-82
2023/03/26 01:49:11;;;;;;;8.23;4.70;;;7.20;99.90;;;;;;4899031;29;20202;-81
2023/03/26 01:51:41;;;;;;;8.70;4.70;;;7.10;99.90;;;;;;4914553;29;20356;-82
2023/03/26 01:54:14;;;;;;;11.00;4.67;;;7.10;99.90;;;;;;4914743;29;20214;-82
2023/03/26 01:57:00;;;;;;;7.60;4.33;;;7.10;99.90;;;;;;4898553;29;20724;-81
2023/03/26 01:59:36;;;;;;;6.93;4.43;;;7.10;99.90;;;;;;4914503;29;20341;-82
2023/03/26 02:02:27;;;;;;;7.37;4.13;;;7.10;99.90;;;;;;4914381;29;20326;-83
2023/03/26 02:05:03;;;;;;;9.60;4.77;;;7.20;99.90;;;;;;4914408;29;20189;-79
2023/03/26 02:07:43;;;;;;;7.77;4.60;;;7.20;99.90;;;;;;4883055;29;20207;-79
2023/03/26 02:10:15;;;;;;;8.37;4.67;;;7.20;99.90;;;;;;4914311;29;20265;-80
2023/03/26 02:12:43;;;;;;;7.90;4.50;;;7.20;99.90;;;;;;4902618;29;20772;-79
2023/03/26 02:15:11;;;;;;;7.23;4.43;;;7.20;99.90;;;;;;4976555;28;20666;-81
2023/03/26 02:17:39;;;;;;;7.27;4.50;;;7.20;99.90;;;;;;4959594;28;20275;-81
2023/03/26 02:20:09;;;;;;;8.00;4.67;;;7.10;99.90;;;;;;4975940;28;20286;-81
2023/03/26 02:22:40;;;;;;;8.57;4.70;;;7.10;99.90;;;;;;4993548;28;20248;-82
2023/03/26 02:25:16;;;;;;;8.93;4.80;;;7.10;99.90;;;;;;4980788;28;20189;-80
2023/03/26 02:27:44;;;;;;;8.73;4.20;;;7.20;99.90;;;;;;4993077;28;20238;-81
2023/03/26 02:30:16;;;;;;;10.27;4.33;;;7.10;99.90;;;;;;4993502;28;20516;-80
2023/03/26 02:32:43;;;;;;;8.87;4.80;;;7.20;99.90;;;;;;4976014;28;20229;-80
2023/03/26 02:35:11;;;;;;;8.00;4.40;;;7.30;99.90;;;;;;4975456;28;20350;-81
2023/03/26 02:37:39;;;;;;;7.13;4.27;;;7.20;99.90;;;;;;4992704;28;20300;-81
2023/03/26 02:40:10;;;;;;;9.20;4.53;;;7.10;99.90;;;;;;4993057;28;20688;-81
2023/03/26 02:42:38;;;;;;;9.50;4.70;;;7.00;99.90;;;;;;4975774;28;20251;-81
2023/03/26 02:45:06;;;;;;;7.83;4.37;;;7.00;99.90;;;;;;4978795;28;20197;-81
2023/03/26 02:47:33;;;;;;;9.53;5.10;;;7.00;99.90;;;;;;4979515;28;20216;-81
2023/03/26 02:50:02;;;;;;;7.93;4.60;;;7.10;99.90;;;;;;4996980;28;20518;-82
2023/03/26 02:52:29;;;;;;;8.03;4.57;;;7.10;99.90;;;;;;4979517;28;20200;-81
2023/03/26 02:54:56;;;;;;;7.70;4.47;;;7.10;99.90;;;;;;4997317;28;20193;-79
2023/03/26 02:57:24;;;;;;;7.47;4.50;;;7.20;99.90;;;;;;4980434;28;20216;-79
2023/03/26 02:59:51;;;;;;;7.87;4.57;;;7.10;99.90;;;;;;4979206;28;20200;-79
2023/03/26 03:02:19;;;;;;;8.67;5.00;;;7.20;99.90;;;;;;4978470;28;20205;-81
2023/03/26 03:04:46;;;;;;;6.83;4.20;;;7.20;99.90;;;;;;4996888;28;20203;-80
2023/03/26 03:07:13;;;;;;;10.33;4.20;;;7.20;99.90;;;;;;4979149;28;20222;-81
2023/03/26 03:09:41;;;;;;;8.23;4.83;;;7.20;99.90;;;;;;4978831;28;20188;-80
2023/03/26 03:12:07;;;;;;;6.43;4.20;;;7.00;99.90;;;;;;4979009;28;20229;-81
2023/03/26 03:14:35;;;;;;;7.67;4.13;;;7.10;99.90;;;;;;4979054;28;20695;-81
2023/03/26 03:17:02;;;;;;;8.83;4.53;;;7.20;99.90;;;;;;4978828;28;20194;-80
2023/03/26 03:19:29;;;;;;;7.27;4.30;;;7.10;99.90;;;;;;4962767;28;20335;-81
2023/03/26 03:21:56;;;;;;;7.27;4.53;;;7.10;99.90;;;;;;4980475;28;20251;-81
2023/03/26 03:24:23;;;;;;;7.97;4.40;;;7.10;99.90;;;;;;4978893;28;20197;-81
2023/03/26 03:26:53;;;;;;;7.33;3.90;;;7.10;99.90;;;;;;4996381;28;20199;-80
2023/03/26 03:29:21;;;;;;;6.03;3.57;;;7.20;99.90;;;;;;4978727;28;20203;-81
2023/03/26 03:38:19;;;;;;;5.07;3.27;;;7.40;99.90;;;;;;4938282;26;20340;-81
2023/03/26 03:43:58;;;;;;;6.03;3.23;;;7.40;99.90;;;;;;5015830;23;20286;-81
2023/03/26 03:46:25;;;;;;;5.97;3.50;;;7.40;99.90;;;;;;4994196;28;20215;-80
2023/03/26 03:48:52;;;;;;;6.17;3.20;;;7.50;99.90;;;;;;4994595;28;20212;-80
2023/03/26 03:51:19;;;;;;;6.03;2.93;;;7.50;99.90;;;;;;4995018;28;20200;-81
2023/03/26 03:53:48;;;;;;;6.27;3.13;;;7.60;99.90;;;;;;4995859;28;20192;-80
2023/03/26 03:56:17;;;;;;;6.10;3.17;;;7.50;99.90;;;;;;4994377;28;20608;-81
2023/03/26 03:58:45;;;;;;;6.73;3.37;;;7.40;99.90;;;;;;4994709;28;20216;-79
2023/03/26 04:01:12;;;;;;;6.70;3.20;;;7.40;99.90;;;;;;4995857;28;20177;-81
2023/03/26 04:03:39;;;;;;;5.10;3.07;;;7.40;99.90;;;;;;4995230;28;20200;-82
2023/03/26 04:06:09;;;;;;;6.20;3.27;;;7.40;99.90;;;;;;4994501;28;20251;-82
2023/03/26 04:08:38;;;;;;;8.23;3.30;;;7.40;99.90;;;;;;4996311;28;20232;-81
2023/03/26 04:11:05;;;;;;;6.47;2.90;;;7.30;99.90;;;;;;4994429;28;20204;-81
2023/03/26 04:13:32;;;;;;;4.63;2.83;;;7.40;99.90;;;;;;4995248;28;20312;-81
2023/03/26 04:16:00;;;;;;;6.20;2.73;;;7.40;99.90;;;;;;4995317;28;20820;-79
2023/03/26 04:18:29;;;;;;;5.87;2.77;;;7.30;99.90;;;;;;4994969;28;20220;-80
2023/03/26 04:20:56;;;;;;;7.93;3.03;;;7.20;99.90;;;;;;4995800;28;20654;-79
2023/03/26 04:23:23;;;;;;;4.77;2.77;;;7.20;99.90;;;;;;4994018;28;20231;-80
2023/03/26 04:25:53;;;;;;;7.30;3.03;;;7.20;99.90;;;;;;4994268;28;20284;-81
2023/03/26 04:28:35;;;;;;;6.00;3.07;;;7.20;99.90;;;;;;4994255;28;20203;-81
2023/03/26 04:31:02;;;;;;;6.43;2.83;;;7.20;99.90;;;;;;4994338;28;20217;-80
2023/03/26 04:33:33;;;;;;;6.67;3.13;;;7.20;99.90;;;;;;4994180;28;20258;-81
2023/03/26 04:36:01;;;;;;;6.83;3.23;;;7.20;99.90;;;;;;4995382;28;20542;-82
2023/03/26 04:38:32;;;;;;;6.43;3.30;;;7.10;99.90;;;;;;4993783;28;20234;-80
2023/03/26 04:41:00;;;;;;;4.93;3.30;;;7.10;99.90;;;;;;4995213;28;20643;-80
2023/03/26 04:43:34;;;;;;;6.23;3.10;;;7.10;99.90;;;;;;4993659;28;20336;-81
2023/03/26 04:46:03;;;;;;;5.20;3.23;;;7.10;99.90;;;;;;4993568;28;20197;-80
2023/03/26 04:48:30;;;;;;;5.27;3.30;;;7.10;99.90;;;;;;4993294;28;20203;-80
2023/03/26 04:50:57;;;;;;;6.73;3.43;;;7.10;99.90;;;;;;4994833;28;20661;-81
2023/03/26 04:53:24;;;;;;;5.60;3.30;;;7.10;99.90;;;;;;4994897;28;20203;-78
2023/03/26 04:56:00;;;;;;;7.80;3.50;;;7.10;99.90;;;;;;4996336;28;20258;-80
2023/03/26 04:58:31;;;;;;;5.80;3.30;;;7.00;99.90;;;;;;4992922;28;20223;-81
2023/03/26 05:01:02;;;;;;;6.63;3.70;;;7.00;99.90;;;;;;4993299;28;20203;-81
2023/03/26 05:03:39;;;;;;;8.73;4.10;;;7.00;99.90;;;;;;4994436;28;20278;-81
2023/03/26 05:06:09;;;;;;;7.80;3.70;;;7.00;99.90;;;;;;4994539;28;20194;-79
2023/03/26 05:08:36;;;;;;;9.03;3.73;;;7.00;99.90;;;;;;4994642;28;20204;-81
2023/03/26 05:11:06;;;;;;;7.13;3.70;;;7.00;99.90;;;;;;4993543;28;20207;-81
2023/03/26 05:13:33;;;;;;;7.13;4.03;;;7.00;99.90;;;;;;4994763;28;20291;-81
2023/03/26 05:16:00;;;;;;;7.07;3.90;;;7.00;99.90;;;;;;4992876;28;20563;-79
2023/03/26 05:31:59;;;;;;;6.90;3.63;;;7.20;99.90;;;;;;4987634;28;20213;-79
2023/03/26 05:34:26;;;;;;;6.53;3.83;;;7.20;99.90;;;;;;4974635;28;20207;-80
2023/03/26 05:36:53;;;;;;;7.63;3.73;;;7.40;99.90;;;;;;4973295;28;20205;-80
2023/03/26 05:39:24;;;;;;;6.00;3.57;;;7.30;99.90;;;;;;4974939;28;20746;-80
2023/03/26 05:41:51;;;;;;;8.07;3.60;;;7.30;99.90;;;;;;4989606;28;20197;-80
2023/03/26 05:44:18;;;;;;;8.20;4.00;;;7.40;99.90;;;;;;4973275;28;20604;-80
2023/03/26 05:46:45;;;;;;;8.00;3.47;;;7.40;99.90;;;;;;4974067;28;20224;-81
2023/03/26 05:49:12;;;;;;;6.30;3.67;;;7.40;99.90;;;;;;4974611;28;20634;-81
2023/03/26 05:51:40;;;;;;;9.57;4.13;;;7.40;99.90;;;;;;4974955;28;20214;-80
2023/03/26 05:54:06;;;;;;;7.80;3.83;;;7.40;99.90;;;;;;4972916;28;20204;-80
2023/03/26 05:56:33;;;;;;;5.33;3.40;;;7.50;99.90;;;;;;4973974;28;20201;-81
2023/03/26 05:59:00;;;;;;;7.20;3.53;;;7.50;99.90;;;;;;4973967;28;20252;-81
2023/03/26 06:01:28;;;;;;;7.23;3.37;;;7.70;99.90;;;;;;4980834;28;20194;-81
2023/03/26 06:03:55;;;;;;;5.67;3.20;;;7.60;99.90;;;;;;4974028;28;20224;-80
2023/03/26 06:06:22;;;;;;;4.93;3.13;;;7.70;99.90;;;;;;4988909;28;20209;-78
2023/03/26 06:08:51;;;;;;;5.37;3.30;;;7.80;99.90;;;;;;4972318;28;20201;-78
2023/03/26 06:11:29;;;;;;;5.60;3.10;;;7.80;99.90;;;;;;4988675;28;20212;-77
2023/03/26 06:13:56;;;;;;;5.70;3.00;;;8.00;99.90;;;;;;4954411;28;20218;-78
2023/03/26 06:16:23;;;;;;;4.07;2.87;;;8.10;99.90;;;;;;4954156;28;20644;-77
2023/03/26 06:18:54;;;;;;;8.93;3.10;;;8.20;99.90;;;;;;4968790;28;20273;-77
2023/03/26 06:21:24;;;;;;;5.13;2.90;;;8.10;99.90;;;;;;4952265;28;20220;-77
2023/03/26 06:23:54;;;;;;;7.80;2.90;;;8.10;99.90;;;;;;4968684;28;20194;-77
2023/03/26 06:26:47;;;;;;;4.50;3.00;;;8.20;99.90;;;;;;4952724;29;20209;-76
2023/03/26 06:29:24;;;;;;;4.33;2.60;;;8.20;99.90;;;;;;5063506;23;20251;-76
2023/03/26 06:31:51;;;;;;;5.40;3.07;;;8.10;99.90;;;;;;4972502;28;20208;-78
2023/03/26 06:34:18;;;;;;;4.83;2.57;;;7.90;99.90;;;;;;4972258;28;20209;-79
2023/03/26 06:36:47;;;;;;;4.50;2.80;;;7.70;99.90;;;;;;4972343;28;20201;-79
2023/03/26 06:39:14;;;;;;;5.00;3.00;;;7.40;99.90;;;;;;4972219;28;20226;-78
2023/03/26 06:41:43;;;;;;;6.27;3.07;;;7.40;99.90;;;;;;4972343;28;20545;-79
2023/03/26 06:44:11;;;;;;;7.47;3.20;;;7.30;99.90;;;;;;4972047;28;20332;-80
2023/03/26 06:46:37;;;;;;;6.93;3.10;;;7.20;99.90;;;;;;4973347;28;20208;-79
2023/03/26 06:49:04;;;;;;;7.07;3.30;;;7.20;99.90;;;;;;4973477;28;20202;-79
2023/03/26 06:51:32;;;;;;;5.37;3.10;;;7.20;99.90;;;;;;4972248;28;20571;-79
2023/03/26 06:53:59;;;;;;;5.37;3.30;;;7.20;99.90;;;;;;4972155;28;20228;-78
2023/03/26 06:56:26;;;;;;;6.17;3.27;;;7.10;99.90;;;;;;4973703;28;20742;-79
2023/03/26 06:58:53;;;;;;;6.03;3.53;;;7.10;99.90;;;;;;4971807;28;20232;-80
2023/03/26 07:01:20;;;;;;;5.23;3.10;;;7.10;99.90;;;;;;4972096;28;20205;-80
2023/03/26 07:03:48;;;;;;;8.63;3.60;;;7.10;99.90;;;;;;4972160;28;20311;-79
2023/03/26 07:06:15;;;;;;;6.33;3.50;;;7.00;99.90;;;;;;4971826;28;20591;-80
2023/03/26 07:08:42;;;;;;;5.60;3.20;;;7.10;99.90;;;;;;4972045;28;20205;-80
2023/03/26 07:11:09;;;;;;;6.77;3.30;;;7.10;99.90;;;;;;4973243;28;20722;-80
2023/03/26 07:13:36;;;;;;;6.87;2.90;;;7.10;99.90;;;;;;4972963;28;20216;-81
2023/03/26 07:16:03;;;;;;;6.50;3.43;;;7.30;99.90;;;;;;4971816;28;20208;-81
2023/03/26 07:18:30;;;;;;;6.07;3.50;;;7.30;99.90;;;;;;4971810;28;20212;-81
2023/03/26 07:20:57;;;;;;;5.30;3.20;;;7.40;99.90;;;;;;4973010;28;20190;-81
2023/03/26 07:23:25;;;;;;;6.43;3.30;;;7.40;99.90;;;;;;4972883;28;20280;-81
2023/03/26 07:25:52;;;;;;;4.90;3.13;;;7.60;99.90;;;;;;4971889;28;20263;-81
2023/03/26 07:28:30;;;;;;;6.27;3.40;;;7.70;99.90;;;;;;4971415;28;20212;-80
2023/03/26 07:31:12;;;;;;;7.43;3.60;;;7.80;99.90;;;;;;4971808;28;20615;-79
2023/03/26 07:34:02;;;;;;;4.60;3.00;;;8.00;99.90;;;;;;4958708;28;20203;-77
2023/03/26 07:36:51;;;;;;;6.97;3.50;;;8.20;99.90;;;;;;4975076;28;20204;-78
2023/03/26 07:39:32;;;;;;;7.60;3.50;;;8.40;99.90;;;;;;4975033;28;20236;-78
2023/03/26 07:42:15;;;;;;;5.50;2.73;;;8.60;99.90;;;;;;4974957;28;20284;-77
2023/03/26 07:45:10;;;;;;;5.47;3.10;;;8.60;99.90;;;;;;4974976;28;20612;-78
2023/03/26 07:47:40;;;;;;;4.13;2.87;;;8.70;99.90;;;;;;4919539;29;20340;-78
2023/03/26 07:50:18;;;;;;;6.87;3.23;;;8.60;99.90;;;;;;4935292;29;20274;-78
2023/03/26 07:52:45;;;;;;;6.33;3.10;;;8.60;99.90;;;;;;4919413;29;20217;-77
2023/03/26 07:55:14;;;;;;;5.67;3.30;;;8.70;99.90;;;;;;4935294;29;20202;-77
2023/03/26 07:57:49;;;;;;;5.90;3.50;;;8.80;99.90;;;;;;4919205;29;20609;-77
2023/03/26 08:00:25;;;;;;;4.80;3.20;;;8.70;99.90;;;;;;4935125;29;20317;-76
2023/03/26 08:03:24;;;;;;;4.20;2.93;;;8.70;99.90;;;;;;4919295;29;20205;-77
2023/03/26 08:06:06;;;;;;;6.33;3.40;;;8.70;99.90;;;;;;4878339;29;20209;-76
2023/03/26 08:09:06;;;;;;;5.27;3.17;;;8.70;99.90;;;;;;4863000;29;20197;-77
2023/03/26 08:11:47;;;;;;;4.57;3.17;;;8.70;99.90;;;;;;4862904;29;20215;-78
2023/03/26 08:14:16;;;;;;;5.83;3.40;;;8.70;99.90;;;;;;4878551;29;20613;-78
2023/03/26 08:16:53;;;;;;;5.50;3.40;;;8.70;99.90;;;;;;4878283;29;20212;-78
2023/03/26 08:19:37;;;;;;;5.07;3.10;;;8.80;99.90;;;;;;4862777;29;20225;-77
2023/03/26 08:22:16;;;;;;;4.00;2.97;;;8.90;99.90;;;;;;4862727;29;20683;-78
2023/03/26 08:25:08;;;;;;;4.23;3.10;;;8.80;99.90;;;;;;4880347;29;20215;-76
2023/03/26 08:27:38;;;;;;;4.97;2.50;;;8.90;99.90;;;;;;4899953;29;20208;-76
2023/03/26 08:30:19;;;;;;;4.20;3.00;;;9.00;99.90;;;;;;4915622;29;20241;-77
2023/03/26 08:35:33;;;;;;;4.40;3.10;;;9.00;99.90;;;;;;4986552;23;20260;-80
2023/03/26 08:39:23;;;;;;;9.43;3.80;;;8.90;99.90;;;;;;4959800;23;20233;-77
2023/03/26 08:43:09;;;;;;;6.20;3.33;;;8.90;99.90;;;;;;4951839;28;20243;-80
2023/03/26 08:46:14;;;;;;;5.17;3.47;;;9.00;99.90;;;;;;4973262;28;20330;-77
2023/03/26 08:49:50;;;;;;;4.17;3.10;;;9.20;99.90;;;;;;4973677;28;20268;-77
2023/03/26 08:57:16;;;;;;;5.17;3.10;;;9.40;99.90;;;;;;4896290;29;20659;-77
2023/03/26 09:00:31;;;;;;;5.40;3.10;;;9.60;99.90;;;;;;4914594;29;20227;-78
2023/03/26 09:03:58;;;;;;;6.17;3.93;;;9.70;99.90;;;;;;4914540;29;20214;-78
2023/03/26 09:07:11;;;;;;;5.67;3.03;;;9.90;99.90;;;;;;4914446;29;20266;-77
2023/03/26 09:10:38;;;;;;;5.03;2.63;;;10.20;99.90;;;;;;4963495;23;20245;-78
2023/03/26 09:14:32;;;;;;;4.97;2.90;;;10.30;99.90;;;;;;4950181;29;20233;-77
2023/03/26 09:17:26;;;;;;;4.30;3.00;;;10.20;99.90;;;;;;4920906;29;20636;-77
2023/03/26 09:20:29;;;;;;;5.47;3.00;;;10.10;99.90;;;;;;4936616;29;20238;-81
2023/03/26 09:23:33;;;;;;;5.10;3.30;;;10.00;99.90;;;;;;4953073;29;20221;-77
2023/03/26 09:26:37;;;;;;;5.43;3.70;;;9.60;99.90;;;;;;4936688;29;20201;-78
2023/03/26 09:29:22;;;;;;;3.40;3.10;;;9.30;99.90;;;;;;4921032;29;20226;-79
2023/03/26 09:32:13;;;;;;;5.00;3.10;;;9.00;99.90;;;;;;4943983;29;20191;-78
2023/03/26 09:34:40;;;;;;;4.80;3.23;;;9.20;99.90;;;;;;4917714;29;20218;-77
2023/03/26 09:37:19;;;;;;;6.97;3.20;;;9.30;99.90;;;;;;4918317;29;20213;-81
2023/03/26 09:40:16;;;;;;;8.03;3.80;;;9.40;99.90;;;;;;4918253;29;20227;-78
2023/03/26 09:48:48;;;;;;;3.70;2.80;;;9.50;99.90;;;;;;4951994;29;20249;-80
2023/03/26 09:51:32;;;;;;;5.83;2.90;;;9.60;99.90;;;;;;4954791;29;20208;-79
2023/03/26 09:54:47;;;;;;;4.17;2.90;;;9.60;99.90;;;;;;4954189;28;20206;-78
2023/03/26 09:57:27;;;;;;;6.77;2.83;;;9.60;99.90;;;;;;4897511;29;20287;-79
2023/03/26 10:00:27;;;;;;;3.13;2.47;;;9.60;99.90;;;;;;4897910;29;20239;-77
2023/03/26 10:03:17;;;;;;;3.57;2.43;;;9.60;99.90;;;;;;4898167;29;20298;-78
2023/03/26 10:06:10;;;;;;;3.40;2.30;;;9.50;99.90;;;;;;4898211;29;20302;-78
2023/03/26 10:08:46;;;;;;;4.43;2.50;;;9.60;99.90;;;;;;4898374;29;20214;-80
2023/03/26 10:11:19;;;;;;;4.27;2.50;;;9.80;99.90;;;;;;4898417;29;20203;-78
2023/03/26 10:13:55;;;;;;;3.00;1.97;;;10.10;99.90;;;;;;4914149;29;20623;-78
2023/03/26 10:16:40;;;;;;;3.07;1.90;;;10.10;99.90;;;;;;4897991;29;20203;-79
2023/03/26 10:19:44;;;;;;;3.50;1.80;;;10.10;99.90;;;;;;4914012;29;20219;-78
2023/03/26 10:22:52;;;;;;;2.30;1.73;;;10.10;99.90;;;;;;4898062;29;20207;-78
2023/03/26 10:25:38;;;;;;;3.80;1.70;;;10.00;99.90;;;;;;4879242;29;20218;-77
2023/03/26 10:28:37;;;;;;;2.73;1.80;;;9.90;99.90;;;;;;4861195;29;20597;-77
2023/03/26 10:31:39;;;;;;;2.70;1.97;;;9.50;99.90;;;;;;4860955;29;20201;-77
2023/03/26 10:34:25;;;;;;;3.50;2.40;;;9.40;99.90;;;;;;4863280;29;20196;-74
2023/03/26 10:37:06;;;;;;;3.43;2.13;;;9.80;99.90;;;;;;4883671;29;20199;-72
2023/03/26 10:40:09;;;;;;;3.20;2.20;;;10.20;99.90;;;;;;4898105;29;20227;-87
2023/03/26 10:43:18;;;;;;;2.97;2.20;;;11.10;99.90;;;;;;4913941;29;20223;-76
2023/03/26 10:45:49;;;;;;;3.27;2.13;;;11.30;99.90;;;;;;4913638;29;20207;-77
2023/03/26 10:48:41;;;;;;;3.90;2.70;;;11.00;99.90;;;;;;4929220;29;20223;-77
2023/03/26 10:51:33;;;;;;;2.87;2.10;;;10.70;99.90;;;;;;4883407;29;20207;-81
2023/03/26 10:54:11;;;;;;;4.10;1.83;;;10.50;99.90;;;;;;4929422;29;20294;-79
2023/03/26 10:56:44;;;;;;;1.83;1.03;;;10.40;99.90;;;;;;4919570;29;20202;-77
2023/03/26 10:59:14;;;;;;;2.63;1.10;;;9.70;99.90;;;;;;4926767;29;20206;-77
2023/03/26 11:02:04;;;;;;;2.73;1.20;;;8.90;99.90;;;;;;4933164;29;20619;-78
2023/03/26 11:04:55;;;;;;;2.27;1.30;;;8.90;99.90;;;;;;4933774;29;20198;-76
2023/03/26 11:07:41;;;;;;;2.33;1.10;;;8.90;99.90;;;;;;4935837;29;20207;-79
2023/03/26 11:10:14;;;;;;;3.50;1.23;;;9.00;99.90;;;;;;4938400;29;20539;-77
2023/03/26 11:13:11;;;;;;;1.40;1.30;;;9.50;99.90;;;;;;4936864;29;20586;-75
2023/03/26 11:16:03;;;;;;;1.80;1.53;;;9.80;99.90;;;;;;4921070;29;20301;-78
2023/03/26 11:18:56;;;;;;;1.90;1.60;;;10.50;99.90;;;;;;4901007;29;20204;-74
2023/03/26 11:21:41;;;;;;;2.43;1.70;;;10.80;99.90;;;;;;4896691;29;20321;-77
2023/03/26 11:24:28;;;;;;;4.00;1.77;;;10.80;99.90;;;;;;4900574;29;20207;-76
2023/03/26 11:27:11;;;;;;;3.30;2.17;;;10.80;99.90;;;;;;4916552;29;20183;-75
2023/03/26 11:30:03;;;;;;;2.40;2.00;;;10.60;99.90;;;;;;4900711;29;20298;-78
2023/03/26 11:32:51;;;;;;;3.03;1.77;;;10.80;99.90;;;;;;4916477;29;20573;-73
2023/03/26 11:35:28;;;;;;;2.83;1.70;;;11.10;99.90;;;;;;4916465;29;20311;-74
2023/03/26 11:38:39;;;;;;;2.20;1.50;;;11.20;99.90;;;;;;4916485;29;20642;-77
2023/03/26 11:41:20;;;;;;;1.67;1.30;;;11.40;99.90;;;;;;4916285;29;20308;-76
2023/03/26 11:44:23;;;;;;;2.07;1.30;;;11.50;99.90;;;;;;4915964;29;20216;-74
2023/03/26 11:47:00;;;;;;;2.00;1.60;;;11.80;99.90;;;;;;5066131;23;20195;-83
2023/03/26 11:49:28;;;;;;;2.57;1.37;;;11.70;99.90;;;;;;4995626;28;20617;-78
2023/03/26 11:51:55;;;;;;;2.50;1.30;;;11.80;99.90;;;;;;4977652;28;20203;-78
2023/03/26 11:54:26;;;;;;;2.63;1.63;;;12.00;99.90;;;;;;4977774;28;20251;-78
2023/03/26 11:57:00;;;;;;;1.90;1.30;;;12.50;99.90;;;;;;4961514;28;20663;-77
2023/03/26 11:59:37;;;;;;;3.43;1.77;;;13.30;99.90;;;;;;4963045;28;20217;-76
2023/03/26 12:02:32;;;;;;;2.80;1.50;;;14.10;99.90;;;;;;4995364;28;20276;-76
2023/03/26 12:05:19;;;;;;;3.47;1.70;;;13.40;99.90;;;;;;4977514;28;20283;-76
2023/03/26 12:07:52;;;;;;;3.30;1.80;;;13.10;99.90;;;;;;4972477;28;20563;-78
2023/03/26 12:10:22;;;;;;;3.10;1.70;;;12.70;99.90;;;;;;4958770;28;20197;-77
2023/03/26 12:13:18;;;;;;;2.20;1.50;;;12.50;99.90;;;;;;5678535;23;20306;-77
2023/03/26 12:16:32;;;;;;;3.17;1.90;;;12.50;99.90;;;;;;4956714;28;20671;-75
2023/03/26 12:19:16;;;;;;;2.83;1.75;;;12.20;99.90;;;;;;4963015;28;20467;-77
2023/03/26 12:21:45;;;;;;;3.90;1.60;;;12.10;99.90;;;;;;4956715;28;20656;-78
2023/03/26 12:24:34;;;;;;;2.40;1.75;;;12.10;99.90;;;;;;4955522;28;20483;-76
2023/03/26 12:27:24;;;;;;;3.00;1.60;;;11.70;99.90;;;;;;4955770;28;20204;-80
2023/03/26 12:29:58;;;;;;;3.10;1.60;;;11.30;99.90;;;;;;4974914;28;20189;-76
2023/03/26 12:32:32;;;;;;;2.40;1.70;;;11.40;99.90;;;;;;4957368;28;20789;-79
2023/03/26 12:35:28;;;;;;;2.63;1.60;;;11.60;99.90;;;;;;4954432;28;20205;-73
2023/03/26 12:38:14;;;;;;;3.10;1.80;;;11.70;99.90;;;;;;4947240;28;20305;-77
2023/03/26 12:40:42;;;;;;;2.27;1.77;;;11.40;99.90;;;;;;4946959;28;20226;-76
2023/03/26 12:43:35;;;;;;;3.90;1.90;;;11.10;99.90;;;;;;4938441;29;20218;-79
2023/03/26 12:46:30;;;;;;;2.00;1.80;;;11.00;99.90;;;;;;4955875;29;20253;-75
2023/03/26 12:49:21;;;;;;;2.90;1.80;;;10.80;99.90;;;;;;4925365;29;20562;-79
2023/03/26 12:52:26;;;;;;;4.10;2.10;;;11.00;99.90;;;;;;4925185;28;20201;-80
2023/03/26 12:55:12;;;;;;;2.10;1.87;;;11.00;99.90;;;;;;4957764;28;20205;-79
2023/03/26 12:58:06;;;;;;;3.03;2.13;;;10.70;99.90;;;;;;4957552;28;20203;-81
2023/03/26 13:03:49;;;;;;;4.45;2.25;;;11.10;99.90;;;;;;5046012;23;20451;-78
2023/03/26 13:06:39;;;;;;;3.03;2.30;;;11.00;99.90;;;;;;4942986;28;20461;-77
2023/03/26 13:09:44;;;;;;;2.77;1.90;;;10.70;99.90;;;;;;4944466;29;20185;-79
2023/03/26 13:12:39;;;;;;;2.23;1.70;;;10.50;99.90;;;;;;4945794;28;20222;-81
2023/03/26 13:15:37;;;;;;;2.83;2.13;;;10.20;99.90;;;;;;4965868;28;20218;-82
2023/03/26 13:18:23;;;;;;;3.17;1.60;;;9.70;99.90;;;;;;4954043;28;20243;-76
2023/03/26 13:21:01;;;;;;;3.07;1.50;;;9.20;99.90;;;;;;4956246;29;20241;-78
2023/03/26 13:23:38;;;;;;;2.70;1.30;;;9.10;99.90;;;;;;4939515;29;20208;-86
2023/03/26 13:26:14;;;;;;;2.13;1.33;;;9.20;99.90;;;;;;4939949;29;20668;-80
2023/03/26 13:28:51;;;;;;;1.57;1.17;;;10.00;99.90;;;;;;4940649;29;20308;-84
2023/03/26 13:31:20;;;;;;;1.67;1.13;;;11.00;99.90;;;;;;4938023;29;20206;-81
2023/03/26 13:34:10;;;;;;;1.90;1.23;;;11.10;99.90;;;;;;4937920;29;20297;-78
2023/03/26 13:37:11;;;;;;;1.50;1.10;;;11.00;99.90;;;;;;4938350;29;20221;-82
2023/03/26 13:39:38;;;;;;;2.33;1.20;;;11.00;99.90;;;;;;4953567;29;20663;-82
2023/03/26 13:42:25;;;;;;;3.03;1.50;;;11.40;99.90;;;;;;4937851;29;20198;-76
2023/03/26 13:45:04;;;;;;;2.07;1.00;;;11.80;99.90;;;;;;4938937;29;20201;-77
2023/03/26 13:47:39;;;;;;;1.83;1.30;;;12.30;99.90;;;;;;4938677;29;20210;-78
2023/03/26 13:50:22;;;;;;;1.80;1.30;;;12.50;99.90;;;;;;4937851;28;20228;-80
2023/03/26 13:52:59;;;;;;;1.80;1.30;;;12.60;99.90;;;;;;4955325;28;20204;-79
2023/03/26 13:55:59;;;;;;;1.77;1.30;;;13.00;99.90;;;;;;4955349;29;20198;-78
2023/03/26 13:58:52;;;;;;;1.73;1.23;;;12.80;99.90;;;;;;4895537;29;20295;-85
2023/03/26 14:01:39;;;;;;;2.40;1.80;;;12.20;99.90;;;;;;4880121;29;20224;-78
2023/03/26 14:04:39;;;;;;;3.13;1.53;;;11.70;99.90;;;;;;4881327;29;20227;-84
2023/03/26 14:07:22;;;;;;;1.53;1.10;;;11.00;99.90;;;;;;4917332;29;20384;-81
2023/03/26 14:10:09;;;;;;;2.17;1.30;;;10.70;99.90;;;;;;4917948;29;20630;-88
2023/03/26 14:13:03;;;;;;;1.20;1.10;;;10.60;99.90;;;;;;4914900;29;20215;-85
2023/03/26 14:15:35;;;;;;;1.10;1.00;;;10.50;99.90;;;;;;4899050;29;20701;-79
2023/03/26 14:18:32;;;;;;;1.03;0.80;;;10.60;99.90;;;;;;4920780;29;20207;-79
2023/03/26 14:33:03;;;;;;;1.43;0.93;;;12.50;99.90;;;;;;5094379;23;20239;-78
2023/03/26 14:35:36;;;;;;;1.83;1.20;;;12.60;99.90;;;;;;4993367;28;20200;-78
2023/03/26 14:38:32;;;;;;;2.40;1.30;;;12.20;99.90;;;;;;4995268;28;20668;-77
2023/03/26 14:41:24;;;;;;;1.97;1.10;;;12.60;99.90;;;;;;5013049;28;20216;-77
2023/03/26 14:44:24;;;;;;;1.70;1.00;;;12.70;99.90;;;;;;4998572;28;20711;-77